Air Resources Laboratory banner image
Air Resources Laboratory web site National Oceanic and Atmospheric Administration (NOAA)

oh metar


KAKR 231954Z AUTO 27006KT 10SM CLR 24/12 A3016 RMK AO2 SLP207 T02390122=
KAOH 231953Z AUTO VRB05KT 10SM CLR 24/13 A3018 RMK AO2 SLP217 T02390133=
KBJJ 231956Z AUTO 01004KT 10SM CLR 23/12 A3018 RMK AO2 SLP216 T02280122=
KBKL 231953Z 28006KT 10SM CLR 17/13 A3017 RMK AO2 SLP216 T01720128=
KCAK 231951Z VRB03KT 10SM FEW035 SCT250 24/12 A3016 RMK AO2 SLP209 T02440122=
KCGF 231945Z 33006KT 10SM FEW200 22/12 A3019=
KCLE 231951Z 35006KT 10SM BKN250 23/08 A3020 RMK AO2 SLP222 T02330078 $=
KCMH 231951Z VRB06KT 10SM FEW043 24/12 A3016 RMK AO2 SLP206 T02440122=
KDAY 231956Z 05010KT 10SM FEW040 FEW250 24/13 A3017 RMK AO2 SLP213 T02440133=
KDFI 231953Z AUTO VRB05KT 10SM CLR 25/13 A3018 RMK AO2 SLP218 T02500128=
KFDY 231953Z AUTO VRB06KT 10SM CLR 26/11 A3018 RMK AO2 SLP212 T02560106=
KFFO 231956Z AUTO 05007KT 10SM CLR 25/14 A3016 RMK AO2 SLP212 T02500135 TSNO $=
KHAO 231953Z AUTO 07006KT 10SM FEW050 27/16 A3015 RMK AO2 SLP207 T02670156=
KHZY 231953Z AUTO 29006KT 10SM CLR 22/11 A3017 RMK AO2 SLP213 T02170111=
KILN 231954Z AUTO 02010KT 10SM CLR 24/16 A3016 RMK AO2 SLP206 T02390156=
KLCK 231955Z AUTO 10SM CLR 23/14 A3015 RMK AO2 T02330142=
KLHQ 231953Z AUTO 02006KT 10SM CLR 23/15 A3017 RMK AO2 SLP211 T02330150=
KLNN 231955Z AUTO 27005KT 10SM CLR 20/10 A3017 RMK AO1 T01990097=
KLPR 231953Z AUTO 10SM CLR 23/06 A3019 RMK AO2 SLP221 T02280061=
KLUK 231953Z 06008KT 10SM CLR 26/16 A3014 RMK AO2 SLP202 T02610161=
KMFD 231952Z 36012G17KT 10SM CLR 23/12 A3019 RMK AO2 SLP220 T02280117=
KMGY 231953Z AUTO 08006KT 10SM CLR 26/11 A3015 RMK AO2 SLP203 T02610111=
KMNN 231953Z AUTO 04008KT 10SM CLR 24/11 A3019 RMK AO2 SLP219 T02390111 $=
KOSU 231953Z 05007KT 10SM SCT046 24/13 A3016 RMK AO2 SLP209 T02390133=
KPHD 231953Z AUTO 03007KT 10SM SCT047 24/13 A3016 RMK AO2 SLP210 T02390128=
KSGH 231956Z AUTO 03012G15KT 10SM CLR 24/14 A3017 RMK AO2 SLP213 T02390144=
KTDZ 231953Z AUTO 14008KT 10SM CLR 25/11 A3019 RMK AO2 SLP220 T02500106=
KTOL 231952Z 33008KT 10SM CLR 26/11 A3018 RMK AO2 SLP216 T02610106=
KTZR 231950Z 06003KT 10SM SCT046 24/14 A3017=
KVTA 231954Z AUTO VRB04KT 10SM BKN042 24/13 A3016 RMK AO2 SLP207 T02390133=
KYNG 231951Z 35004KT 10SM FEW050 FEW250 23/11 A3015 RMK AO2 SLP207 T02280106=
KZZV 231953Z AUTO VRB04KT 10SM BKN038 22/13 A3016 RMK AO2 SLP210 T02220133=